sensor_id;sensor_type;location;lat;lon;timestamp;temperature;humidity
19206;DHT22;59358;52.134;5.596;2023-04-08T00:00:24;7.60;99.90
19206;DHT22;59358;52.134;5.596;2023-04-08T00:02:50;7.60;99.90
19206;DHT22;59358;52.134;5.596;2023-04-08T00:05:17;7.60;99.90
19206;DHT22;59358;52.134;5.596;2023-04-08T00:07:44;7.70;99.90
19206;DHT22;59358;52.134;5.596;2023-04-08T00:10:11;7.70;99.90
19206;DHT22;59358;52.134;5.596;2023-04-08T00:12:37;7.60;99.90
19206;DHT22;59358;52.134;5.596;2023-04-08T00:15:06;7.40;99.90
19206;DHT22;59358;52.134;5.596;2023-04-08T00:17:33;7.40;99.90
19206;DHT22;59358;52.134;5.596;2023-04-08T00:20:00;7.40;99.90
19206;DHT22;59358;52.134;5.596;2023-04-08T00:22:27;7.50;99.90
19206;DHT22;59358;52.134;5.596;2023-04-08T00:24:53;7.50;99.90
19206;DHT22;59358;52.134;5.596;2023-04-08T00:27:20;7.60;99.90
19206;DHT22;59358;52.134;5.596;2023-04-08T00:29:49;7.60;99.90
19206;DHT22;59358;52.134;5.596;2023-04-08T00:32:17;7.60;99.90
19206;DHT22;59358;52.134;5.596;2023-04-08T00:34:44;7.60;99.90
19206;DHT22;59358;52.134;5.596;2023-04-08T00:37:11;7.60;99.90
19206;DHT22;59358;52.134;5.596;2023-04-08T00:39:37;7.50;99.90
19206;DHT22;59358;52.134;5.596;2023-04-08T00:42:04;7.60;99.90
19206;DHT22;59358;52.134;5.596;2023-04-08T00:44:31;7.50;99.90
19206;DHT22;59358;52.134;5.596;2023-04-08T00:46:58;7.60;99.90
19206;DHT22;59358;52.134;5.596;2023-04-08T00:49:26;7.60;99.90
19206;DHT22;59358;52.134;5.596;2023-04-08T00:51:53;7.50;99.90
19206;DHT22;59358;52.134;5.596;2023-04-08T00:54:20;7.40;99.90
19206;DHT22;59358;52.134;5.596;2023-04-08T00:56:47;7.40;99.90
19206;DHT22;59358;52.134;5.596;2023-04-08T00:59:16;7.30;99.90
19206;DHT22;59358;52.134;5.596;2023-04-08T01:01:49;7.20;99.90
19206;DHT22;59358;52.134;5.596;2023-04-08T01:04:25;7.20;99.90
19206;DHT22;59358;52.134;5.596;2023-04-08T01:07:02;7.20;99.90
19206;DHT22;59358;52.134;5.596;2023-04-08T01:09:35;7.20;99.90
19206;DHT22;59358;52.134;5.596;2023-04-08T01:12:06;7.10;99.90
19206;DHT22;59358;52.134;5.596;2023-04-08T01:14:37;7.10;99.90
19206;DHT22;59358;52.134;5.596;2023-04-08T01:17:05;7.10;99.90
19206;DHT22;59358;52.134;5.596;2023-04-08T01:19:36;7.20;99.90
19206;DHT22;59358;52.134;5.596;2023-04-08T01:22:11;7.20;99.90
19206;DHT22;59358;52.134;5.596;2023-04-08T01:24:43;7.10;99.90
19206;DHT22;59358;52.134;5.596;2023-04-08T01:27:13;7.20;99.90
19206;DHT22;59358;52.134;5.596;2023-04-08T01:29:41;7.20;99.90
19206;DHT22;59358;52.134;5.596;2023-04-08T01:32:09;7.10;99.90
19206;DHT22;59358;52.134;5.596;2023-04-08T01:34:38;7.10;99.90
19206;DHT22;59358;52.134;5.596;2023-04-08T01:37:06;7.00;99.90
19206;DHT22;59358;52.134;5.596;2023-04-08T01:39:34;7.00;99.90
19206;DHT22;59358;52.134;5.596;2023-04-08T01:42:02;7.00;99.90
19206;DHT22;59358;52.134;5.596;2023-04-08T01:44:31;6.90;99.90
19206;DHT22;59358;52.134;5.596;2023-04-08T01:46:58;6.90;99.90
19206;DHT22;59358;52.134;5.596;2023-04-08T01:49:26;6.90;99.90
19206;DHT22;59358;52.134;5.596;2023-04-08T01:51:54;6.80;99.90
19206;DHT22;59358;52.134;5.596;2023-04-08T01:54:22;6.80;99.90
19206;DHT22;59358;52.134;5.596;2023-04-08T01:56:50;6.80;99.90
19206;DHT22;59358;52.134;5.596;2023-04-08T01:59:19;6.80;99.90
19206;DHT22;59358;52.134;5.596;2023-04-08T02:01:49;6.70;99.90
19206;DHT22;59358;52.134;5.596;2023-04-08T02:04:17;6.70;99.90
19206;DHT22;59358;52.134;5.596;2023-04-08T02:06:44;6.70;99.90
19206;DHT22;59358;52.134;5.596;2023-04-08T02:09:11;6.60;99.90
19206;DHT22;59358;52.134;5.596;2023-04-08T02:11:38;6.50;99.90
19206;DHT22;59358;52.134;5.596;2023-04-08T02:14:05;6.50;99.90
19206;DHT22;59358;52.134;5.596;2023-04-08T02:16:39;6.40;99.90
19206;DHT22;59358;52.134;5.596;2023-04-08T02:19:12;6.60;99.90
19206;DHT22;59358;52.134;5.596;2023-04-08T02:21:45;6.50;99.90
19206;DHT22;59358;52.134;5.596;2023-04-08T02:24:14;6.50;99.90
19206;DHT22;59358;52.134;5.596;2023-04-08T02:26:44;6.40;99.90
19206;DHT22;59358;52.134;5.596;2023-04-08T02:29:12;6.40;99.90
19206;DHT22;59358;52.134;5.596;2023-04-08T02:31:41;6.40;99.90
19206;DHT22;59358;52.134;5.596;2023-04-08T02:34:10;6.40;99.90
19206;DHT22;59358;52.134;5.596;2023-04-08T02:36:38;6.30;99.90
19206;DHT22;59358;52.134;5.596;2023-04-08T02:39:05;6.30;99.90
19206;DHT22;59358;52.134;5.596;2023-04-08T02:41:33;6.30;99.90
19206;DHT22;59358;52.134;5.596;2023-04-08T02:43:59;6.20;99.90
19206;DHT22;59358;52.134;5.596;2023-04-08T02:46:26;6.20;99.90
19206;DHT22;59358;52.134;5.596;2023-04-08T02:48:53;6.30;99.90
19206;DHT22;59358;52.134;5.596;2023-04-08T02:51:22;6.30;99.90
19206;DHT22;59358;52.134;5.596;2023-04-08T02:53:48;6.30;99.90
19206;DHT22;59358;52.134;5.596;2023-04-08T02:56:15;6.30;99.90
19206;DHT22;59358;52.134;5.596;2023-04-08T02:58:42;6.30;99.90
19206;DHT22;59358;52.134;5.596;2023-04-08T03:01:09;6.30;99.90
19206;DHT22;59358;52.134;5.596;2023-04-08T03:03:35;6.20;99.90
19206;DHT22;59358;52.134;5.596;2023-04-08T03:06:03;6.10;99.90
19206;DHT22;59358;52.134;5.596;2023-04-08T03:08:31;6.00;99.90
19206;DHT22;59358;52.134;5.596;2023-04-08T03:10:58;5.90;99.90
19206;DHT22;59358;52.134;5.596;2023-04-08T03:13:25;5.90;99.90
19206;DHT22;59358;52.134;5.596;2023-04-08T03:15:51;5.80;99.90
19206;DHT22;59358;52.134;5.596;2023-04-08T03:18:18;5.80;99.90
19206;DHT22;59358;52.134;5.596;2023-04-08T03:20:45;5.70;99.90
19206;DHT22;59358;52.134;5.596;2023-04-08T03:23:12;5.70;99.90
19206;DHT22;59358;52.134;5.596;2023-04-08T03:25:40;5.60;99.90
19206;DHT22;59358;52.134;5.596;2023-04-08T03:28:07;5.50;99.90
19206;DHT22;59358;52.134;5.596;2023-04-08T03:30:33;5.50;99.90
19206;DHT22;59358;52.134;5.596;2023-04-08T03:33:01;5.50;99.90
19206;DHT22;59358;52.134;5.596;2023-04-08T03:35:29;5.60;99.90
19206;DHT22;59358;52.134;5.596;2023-04-08T03:37:57;5.40;99.90
19206;DHT22;59358;52.134;5.596;2023-04-08T03:40:24;5.40;99.90
19206;DHT22;59358;52.134;5.596;2023-04-08T03:42:52;5.30;99.90
19206;DHT22;59358;52.134;5.596;2023-04-08T03:45:19;5.30;99.90
19206;DHT22;59358;52.134;5.596;2023-04-08T03:47:45;5.20;99.90
19206;DHT22;59358;52.134;5.596;2023-04-08T03:50:12;5.20;99.90
19206;DHT22;59358;52.134;5.596;2023-04-08T03:52:39;5.10;99.90
19206;DHT22;59358;52.134;5.596;2023-04-08T03:55:07;4.90;99.90
19206;DHT22;59358;52.134;5.596;2023-04-08T03:57:34;4.90;99.90
19206;DHT22;59358;52.134;5.596;2023-04-08T04:00:02;4.90;99.90
19206;DHT22;59358;52.134;5.596;2023-04-08T04:02:29;4.90;99.90
19206;DHT22;59358;52.134;5.596;2023-04-08T04:04:55;4.80;99.90
19206;DHT22;59358;52.134;5.596;2023-04-08T04:07:22;4.70;99.90
19206;DHT22;59358;52.134;5.596;2023-04-08T04:09:49;4.70;99.90
19206;DHT22;59358;52.134;5.596;2023-04-08T04:12:18;4.60;99.90
19206;DHT22;59358;52.134;5.596;2023-04-08T04:14:46;4.50;99.90
19206;DHT22;59358;52.134;5.596;2023-04-08T04:17:14;4.50;99.90
19206;DHT22;59358;52.134;5.596;2023-04-08T04:19:41;4.40;99.90
19206;DHT22;59358;52.134;5.596;2023-04-08T04:22:07;4.20;99.90
19206;DHT22;59358;52.134;5.596;2023-04-08T04:24:34;4.00;99.90
19206;DHT22;59358;52.134;5.596;2023-04-08T04:27:01;4.00;99.90
19206;DHT22;59358;52.134;5.596;2023-04-08T04:29:30;3.90;99.90
19206;DHT22;59358;52.134;5.596;2023-04-08T04:31:57;3.80;99.90
19206;DHT22;59358;52.134;5.596;2023-04-08T04:34:25;3.70;99.90
19206;DHT22;59358;52.134;5.596;2023-04-08T04:36:52;3.70;99.90
19206;DHT22;59358;52.134;5.596;2023-04-08T04:39:19;3.60;99.90
19206;DHT22;59358;52.134;5.596;2023-04-08T04:41:46;3.60;99.90
19206;DHT22;59358;52.134;5.596;2023-04-08T04:44:13;3.60;99.90
19206;DHT22;59358;52.134;5.596;2023-04-08T04:46:41;3.60;99.90
19206;DHT22;59358;52.134;5.596;2023-04-08T04:49:08;3.50;99.90
19206;DHT22;59358;52.134;5.596;2023-04-08T04:51:36;3.40;99.90
19206;DHT22;59358;52.134;5.596;2023-04-08T04:54:03;3.40;99.90
19206;DHT22;59358;52.134;5.596;2023-04-08T04:56:30;3.40;99.90
19206;DHT22;59358;52.134;5.596;2023-04-08T04:58:56;3.30;99.90
19206;DHT22;59358;52.134;5.596;2023-04-08T05:01:23;3.30;99.90
19206;DHT22;59358;52.134;5.596;2023-04-08T05:03:50;3.30;99.90
19206;DHT22;59358;52.134;5.596;2023-04-08T05:06:17;3.20;99.90
19206;DHT22;59358;52.134;5.596;2023-04-08T05:08:45;3.20;99.90
19206;DHT22;59358;52.134;5.596;2023-04-08T05:11:12;3.20;99.90
19206;DHT22;59358;52.134;5.596;2023-04-08T05:13:39;3.10;99.90
19206;DHT22;59358;52.134;5.596;2023-04-08T05:16:06;3.20;99.90
19206;DHT22;59358;52.134;5.596;2023-04-08T05:18:33;3.20;99.90
19206;DHT22;59358;52.134;5.596;2023-04-08T05:21:00;3.20;99.90
19206;DHT22;59358;52.134;5.596;2023-04-08T05:23:26;3.30;99.90
19206;DHT22;59358;52.134;5.596;2023-04-08T05:25:54;3.30;99.90
19206;DHT22;59358;52.134;5.596;2023-04-08T05:28:22;3.30;99.90
19206;DHT22;59358;52.134;5.596;2023-04-08T05:30:49;3.30;99.90
19206;DHT22;59358;52.134;5.596;2023-04-08T05:33:16;3.40;99.90
19206;DHT22;59358;52.134;5.596;2023-04-08T05:35:43;3.50;99.90
19206;DHT22;59358;52.134;5.596;2023-04-08T05:38:10;3.60;99.90
19206;DHT22;59358;52.134;5.596;2023-04-08T05:40:37;3.60;99.90
19206;DHT22;59358;52.134;5.596;2023-04-08T05:43:05;3.60;99.90
19206;DHT22;59358;52.134;5.596;2023-04-08T05:45:32;3.70;99.90
19206;DHT22;59358;52.134;5.596;2023-04-08T05:47:59;3.70;99.90
19206;DHT22;59358;52.134;5.596;2023-04-08T05:50:26;3.80;99.90
19206;DHT22;59358;52.134;5.596;2023-04-08T05:52:52;3.80;99.90
19206;DHT22;59358;52.134;5.596;2023-04-08T05:55:19;3.90;99.90
19206;DHT22;59358;52.134;5.596;2023-04-08T05:57:46;3.90;99.90
19206;DHT22;59358;52.134;5.596;2023-04-08T06:00:14;4.00;99.90
19206;DHT22;59358;52.134;5.596;2023-04-08T06:02:42;4.00;99.90
19206;DHT22;59358;52.134;5.596;2023-04-08T06:05:09;4.10;99.90
19206;DHT22;59358;52.134;5.596;2023-04-08T06:07:36;4.20;99.90
19206;DHT22;59358;52.134;5.596;2023-04-08T06:10:03;4.30;99.90
19206;DHT22;59358;52.134;5.596;2023-04-08T06:12:34;4.30;99.90
19206;DHT22;59358;52.134;5.596;2023-04-08T06:15:01;4.30;99.90
19206;DHT22;59358;52.134;5.596;2023-04-08T06:17:30;4.40;99.90
19206;DHT22;59358;52.134;5.596;2023-04-08T06:19:57;4.50;99.90
19206;DHT22;59358;52.134;5.596;2023-04-08T06:22:24;4.50;99.90
19206;DHT22;59358;52.134;5.596;2023-04-08T06:24:51;4.60;99.90
19206;DHT22;59358;52.134;5.596;2023-04-08T06:27:17;4.60;99.90
19206;DHT22;59358;52.134;5.596;2023-04-08T06:29:44;4.70;99.90
19206;DHT22;59358;52.134;5.596;2023-04-08T06:32:11;4.80;99.90
19206;DHT22;59358;52.134;5.596;2023-04-08T06:34:40;4.80;99.90
19206;DHT22;59358;52.134;5.596;2023-04-08T06:37:07;4.90;99.90
19206;DHT22;59358;52.134;5.596;2023-04-08T06:39:33;5.00;99.90
19206;DHT22;59358;52.134;5.596;2023-04-08T06:42:00;5.00;99.90
19206;DHT22;59358;52.134;5.596;2023-04-08T06:44:27;5.10;99.90
19206;DHT22;59358;52.134;5.596;2023-04-08T06:46:55;5.10;99.90
19206;DHT22;59358;52.134;5.596;2023-04-08T06:49:22;5.30;99.90
19206;DHT22;59358;52.134;5.596;2023-04-08T06:51:50;5.30;99.90
19206;DHT22;59358;52.134;5.596;2023-04-08T06:54:17;5.40;99.90
19206;DHT22;59358;52.134;5.596;2023-04-08T06:56:44;5.50;99.90
19206;DHT22;59358;52.134;5.596;2023-04-08T06:59:11;5.50;99.90
19206;DHT22;59358;52.134;5.596;2023-04-08T07:01:38;5.50;99.90
19206;DHT22;59358;52.134;5.596;2023-04-08T07:04:05;5.70;99.90
19206;DHT22;59358;52.134;5.596;2023-04-08T07:06:32;5.80;99.90
19206;DHT22;59358;52.134;5.596;2023-04-08T07:09:00;5.90;99.90
19206;DHT22;59358;52.134;5.596;2023-04-08T07:11:27;6.00;99.90
19206;DHT22;59358;52.134;5.596;2023-04-08T07:13:54;6.00;99.90
19206;DHT22;59358;52.134;5.596;2023-04-08T07:16:20;6.20;99.90
19206;DHT22;59358;52.134;5.596;2023-04-08T07:18:47;6.30;99.90
19206;DHT22;59358;52.134;5.596;2023-04-08T07:21:14;6.40;99.90
19206;DHT22;59358;52.134;5.596;2023-04-08T07:23:41;6.40;99.90
19206;DHT22;59358;52.134;5.596;2023-04-08T07:26:09;6.50;99.90
19206;DHT22;59358;52.134;5.596;2023-04-08T07:28:36;6.60;99.90
19206;DHT22;59358;52.134;5.596;2023-04-08T07:31:10;6.70;99.90
19206;DHT22;59358;52.134;5.596;2023-04-08T07:33:37;6.70;99.90
19206;DHT22;59358;52.134;5.596;2023-04-08T07:36:04;6.70;99.90
19206;DHT22;59358;52.134;5.596;2023-04-08T07:38:31;6.80;99.90
19206;DHT22;59358;52.134;5.596;2023-04-08T07:40:58;6.90;99.90
19206;DHT22;59358;52.134;5.596;2023-04-08T07:43:26;7.10;99.90
19206;DHT22;59358;52.134;5.596;2023-04-08T07:45:53;7.20;99.90
19206;DHT22;59358;52.134;5.596;2023-04-08T07:48:19;7.30;99.90
19206;DHT22;59358;52.134;5.596;2023-04-08T07:50:46;7.50;99.90
19206;DHT22;59358;52.134;5.596;2023-04-08T07:53:13;7.60;99.90
19206;DHT22;59358;52.134;5.596;2023-04-08T07:55:40;7.80;99.90
19206;DHT22;59358;52.134;5.596;2023-04-08T07:58:07;7.80;99.90
19206;DHT22;59358;52.134;5.596;2023-04-08T08:00:35;7.90;99.90
19206;DHT22;59358;52.134;5.596;2023-04-08T08:03:02;7.90;99.90
19206;DHT22;59358;52.134;5.596;2023-04-08T08:05:29;8.10;99.90
19206;DHT22;59358;52.134;5.596;2023-04-08T08:07:56;8.20;99.90
19206;DHT22;59358;52.134;5.596;2023-04-08T08:10:23;8.30;99.90
19206;DHT22;59358;52.134;5.596;2023-04-08T08:12:50;8.40;99.90
19206;DHT22;59358;52.134;5.596;2023-04-08T08:15:17;8.40;99.90
19206;DHT22;59358;52.134;5.596;2023-04-08T08:17:45;8.40;99.90
19206;DHT22;59358;52.134;5.596;2023-04-08T08:20:12;8.40;99.90
19206;DHT22;59358;52.134;5.596;2023-04-08T08:22:39;8.60;99.90
19206;DHT22;59358;52.134;5.596;2023-04-08T08:25:06;8.80;99.90
19206;DHT22;59358;52.134;5.596;2023-04-08T08:27:34;8.90;99.90
19206;DHT22;59358;52.134;5.596;2023-04-08T08:30:01;8.90;99.90
19206;DHT22;59358;52.134;5.596;2023-04-08T08:32:28;9.20;99.90
19206;DHT22;59358;52.134;5.596;2023-04-08T08:34:56;9.30;99.90
19206;DHT22;59358;52.134;5.596;2023-04-08T08:37:23;9.40;99.90
19206;DHT22;59358;52.134;5.596;2023-04-08T08:39:50;9.40;99.90
19206;DHT22;59358;52.134;5.596;2023-04-08T08:42:20;9.30;99.90
19206;DHT22;59358;52.134;5.596;2023-04-08T08:44:47;9.30;99.90
19206;DHT22;59358;52.134;5.596;2023-04-08T08:47:14;9.40;99.90
19206;DHT22;59358;52.134;5.596;2023-04-08T08:49:41;9.50;99.90
19206;DHT22;59358;52.134;5.596;2023-04-08T08:52:09;9.70;99.90
19206;DHT22;59358;52.134;5.596;2023-04-08T08:54:37;9.80;99.90
19206;DHT22;59358;52.134;5.596;2023-04-08T08:57:03;10.00;99.90
19206;DHT22;59358;52.134;5.596;2023-04-08T08:59:30;10.20;99.90
19206;DHT22;59358;52.134;5.596;2023-04-08T09:01:57;10.30;99.90
19206;DHT22;59358;52.134;5.596;2023-04-08T09:04:24;10.40;99.90
19206;DHT22;59358;52.134;5.596;2023-04-08T09:07:08;10.50;99.90
19206;DHT22;59358;52.134;5.596;2023-04-08T09:09:48;10.60;99.90
19206;DHT22;59358;52.134;5.596;2023-04-08T09:12:15;10.80;99.90
19206;DHT22;59358;52.134;5.596;2023-04-08T09:14:42;10.80;99.90
19206;DHT22;59358;52.134;5.596;2023-04-08T09:17:09;10.90;99.90
19206;DHT22;59358;52.134;5.596;2023-04-08T09:19:36;11.00;99.90
19206;DHT22;59358;52.134;5.596;2023-04-08T09:22:04;11.00;99.90
19206;DHT22;59358;52.134;5.596;2023-04-08T09:24:32;11.10;99.90
19206;DHT22;59358;52.134;5.596;2023-04-08T09:27:00;11.20;99.90
19206;DHT22;59358;52.134;5.596;2023-04-08T09:29:27;11.30;99.90
19206;DHT22;59358;52.134;5.596;2023-04-08T09:31:54;11.40;99.90
19206;DHT22;59358;52.134;5.596;2023-04-08T09:34:22;11.50;99.90
19206;DHT22;59358;52.134;5.596;2023-04-08T09:36:49;11.70;99.90
19206;DHT22;59358;52.134;5.596;2023-04-08T09:39:16;11.70;99.90
19206;DHT22;59358;52.134;5.596;2023-04-08T09:41:44;11.80;99.90
19206;DHT22;59358;52.134;5.596;2023-04-08T09:44:15;11.80;99.90
19206;DHT22;59358;52.134;5.596;2023-04-08T09:46:50;11.90;99.90
19206;DHT22;59358;52.134;5.596;2023-04-08T09:49:25;12.00;99.90
19206;DHT22;59358;52.134;5.596;2023-04-08T09:51:58;12.10;99.90
19206;DHT22;59358;52.134;5.596;2023-04-08T09:54:32;11.90;99.90
19206;DHT22;59358;52.134;5.596;2023-04-08T09:57:10;12.00;99.90
19206;DHT22;59358;52.134;5.596;2023-04-08T09:59:46;12.10;99.90
19206;DHT22;59358;52.134;5.596;2023-04-08T10:02:18;12.40;99.90
19206;DHT22;59358;52.134;5.596;2023-04-08T10:04:47;12.40;99.90
19206;DHT22;59358;52.134;5.596;2023-04-08T10:07:16;12.50;99.90
19206;DHT22;59358;52.134;5.596;2023-04-08T10:09:43;12.70;99.90
19206;DHT22;59358;52.134;5.596;2023-04-08T10:12:11;12.80;99.90
19206;DHT22;59358;52.134;5.596;2023-04-08T10:14:38;12.90;99.90
19206;DHT22;59358;52.134;5.596;2023-04-08T10:17:25;13.10;99.90
19206;DHT22;59358;52.134;5.596;2023-04-08T10:19:53;13.00;99.90
19206;DHT22;59358;52.134;5.596;2023-04-08T10:22:44;13.20;99.90
19206;DHT22;59358;52.134;5.596;2023-04-08T10:25:28;13.50;99.90
19206;DHT22;59358;52.134;5.596;2023-04-08T10:37:58;13.30;99.90
19206;DHT22;59358;52.134;5.596;2023-04-08T10:40:26;13.40;99.90
19206;DHT22;59358;52.134;5.596;2023-04-08T10:42:53;13.50;99.90
19206;DHT22;59358;52.134;5.596;2023-04-08T10:45:20;13.40;99.90
19206;DHT22;59358;52.134;5.596;2023-04-08T10:47:47;13.60;99.90
19206;DHT22;59358;52.134;5.596;2023-04-08T10:50:15;13.90;99.90
19206;DHT22;59358;52.134;5.596;2023-04-08T10:52:46;13.90;99.90
19206;DHT22;59358;52.134;5.596;2023-04-08T10:55:14;14.00;99.90
19206;DHT22;59358;52.134;5.596;2023-04-08T10:57:42;14.00;99.90
19206;DHT22;59358;52.134;5.596;2023-04-08T11:00:10;14.30;99.90
19206;DHT22;59358;52.134;5.596;2023-04-08T11:02:37;14.50;99.90
19206;DHT22;59358;52.134;5.596;2023-04-08T11:05:04;14.40;99.90
19206;DHT22;59358;52.134;5.596;2023-04-08T11:07:32;14.30;99.90
19206;DHT22;59358;52.134;5.596;2023-04-08T11:10:02;14.50;99.90
19206;DHT22;59358;52.134;5.596;2023-04-08T11:12:31;14.50;99.90
19206;DHT22;59358;52.134;5.596;2023-04-08T11:14:58;14.60;99.90
19206;DHT22;59358;52.134;5.596;2023-04-08T11:17:26;14.70;99.90
19206;DHT22;59358;52.134;5.596;2023-04-08T11:19:53;15.10;99.90
19206;DHT22;59358;52.134;5.596;2023-04-08T11:22:20;15.40;99.70
19206;DHT22;59358;52.134;5.596;2023-04-08T11:24:48;15.50;99.90
19206;DHT22;59358;52.134;5.596;2023-04-08T11:27:15;15.70;99.90
19206;DHT22;59358;52.134;5.596;2023-04-08T11:29:44;15.80;99.90
19206;DHT22;59358;52.134;5.596;2023-04-08T11:32:11;15.70;99.90
19206;DHT22;59358;52.134;5.596;2023-04-08T11:34:38;15.60;99.90
19206;DHT22;59358;52.134;5.596;2023-04-08T11:37:06;15.70;99.90
19206;DHT22;59358;52.134;5.596;2023-04-08T11:39:32;15.70;99.90
19206;DHT22;59358;52.134;5.596;2023-04-08T11:41:59;15.70;99.90
19206;DHT22;59358;52.134;5.596;2023-04-08T11:44:30;15.30;99.90
19206;DHT22;59358;52.134;5.596;2023-04-08T11:46:58;15.30;99.90
19206;DHT22;59358;52.134;5.596;2023-04-08T11:49:26;15.30;99.90
19206;DHT22;59358;52.134;5.596;2023-04-08T11:51:54;15.30;99.90
19206;DHT22;59358;52.134;5.596;2023-04-08T11:54:25;15.60;99.10
19206;DHT22;59358;52.134;5.596;2023-04-08T11:56:53;15.40;99.70
19206;DHT22;59358;52.134;5.596;2023-04-08T11:59:20;15.40;99.90
19206;DHT22;59358;52.134;5.596;2023-04-08T12:01:47;15.50;99.90
19206;DHT22;59358;52.134;5.596;2023-04-08T12:04:17;15.80;98.90
19206;DHT22;59358;52.134;5.596;2023-04-08T12:06:44;15.70;98.90
19206;DHT22;59358;52.134;5.596;2023-04-08T12:09:11;15.80;97.70
19206;DHT22;59358;52.134;5.596;2023-04-08T12:11:38;16.10;98.10
19206;DHT22;59358;52.134;5.596;2023-04-08T12:14:05;16.40;98.90
19206;DHT22;59358;52.134;5.596;2023-04-08T12:16:32;16.50;98.20
19206;DHT22;59358;52.134;5.596;2023-04-08T12:18:58;16.50;97.70
19206;DHT22;59358;52.134;5.596;2023-04-08T12:21:26;16.40;99.30
19206;DHT22;59358;52.134;5.596;2023-04-08T12:23:53;16.60;98.80
19206;DHT22;59358;52.134;5.596;2023-04-08T12:26:20;16.40;99.10
19206;DHT22;59358;52.134;5.596;2023-04-08T12:28:47;16.80;99.00
19206;DHT22;59358;52.134;5.596;2023-04-08T12:31:14;16.80;97.90
19206;DHT22;59358;52.134;5.596;2023-04-08T12:33:40;16.60;99.60
19206;DHT22;59358;52.134;5.596;2023-04-08T12:36:07;16.30;98.90
19206;DHT22;59358;52.134;5.596;2023-04-08T12:38:35;16.40;97.80
19206;DHT22;59358;52.134;5.596;2023-04-08T12:41:02;16.20;97.70
19206;DHT22;59358;52.134;5.596;2023-04-08T12:43:29;16.20;97.60
19206;DHT22;59358;52.134;5.596;2023-04-08T12:45:57;16.60;97.20
19206;DHT22;59358;52.134;5.596;2023-04-08T12:48:24;16.70;96.10
19206;DHT22;59358;52.134;5.596;2023-04-08T12:50:50;16.70;96.00
19206;DHT22;59358;52.134;5.596;2023-04-08T12:53:17;16.60;95.20
19206;DHT22;59358;52.134;5.596;2023-04-08T12:55:46;16.60;95.70
19206;DHT22;59358;52.134;5.596;2023-04-08T12:58:12;16.80;95.80
19206;DHT22;59358;52.134;5.596;2023-04-08T13:00:41;16.90;95.20
19206;DHT22;59358;52.134;5.596;2023-04-08T13:03:11;16.90;95.50
19206;DHT22;59358;52.134;5.596;2023-04-08T13:05:37;17.10;93.80
19206;DHT22;59358;52.134;5.596;2023-04-08T13:08:04;17.20;94.30
19206;DHT22;59358;52.134;5.596;2023-04-08T13:10:31;16.80;95.00
19206;DHT22;59358;52.134;5.596;2023-04-08T13:12:59;16.90;97.20
19206;DHT22;59358;52.134;5.596;2023-04-08T13:15:26;17.20;96.50
19206;DHT22;59358;52.134;5.596;2023-04-08T13:17:53;17.60;96.30
19206;DHT22;59358;52.134;5.596;2023-04-08T13:20:20;18.00;94.90
19206;DHT22;59358;52.134;5.596;2023-04-08T13:22:50;18.00;95.90
19206;DHT22;59358;52.134;5.596;2023-04-08T13:25:17;17.70;94.50
19206;DHT22;59358;52.134;5.596;2023-04-08T13:27:43;17.70;94.20
19206;DHT22;59358;52.134;5.596;2023-04-08T13:30:12;18.00;94.60
19206;DHT22;59358;52.134;5.596;2023-04-08T13:32:39;17.90;95.70
19206;DHT22;59358;52.134;5.596;2023-04-08T13:35:06;17.80;94.30
19206;DHT22;59358;52.134;5.596;2023-04-08T13:37:34;17.50;95.00
19206;DHT22;59358;52.134;5.596;2023-04-08T13:40:01;17.70;95.00
19206;DHT22;59358;52.134;5.596;2023-04-08T13:42:28;17.60;95.30
19206;DHT22;59358;52.134;5.596;2023-04-08T13:44:55;17.60;95.40
19206;DHT22;59358;52.134;5.596;2023-04-08T13:47:24;17.80;95.80
19206;DHT22;59358;52.134;5.596;2023-04-08T13:49:51;17.80;95.10
19206;DHT22;59358;52.134;5.596;2023-04-08T13:52:18;17.80;95.90
19206;DHT22;59358;52.134;5.596;2023-04-08T13:54:45;17.50;96.00
19206;DHT22;59358;52.134;5.596;2023-04-08T13:57:12;17.20;96.30
19206;DHT22;59358;52.134;5.596;2023-04-08T13:59:39;17.40;96.10
19206;DHT22;59358;52.134;5.596;2023-04-08T14:02:06;17.40;96.20
19206;DHT22;59358;52.134;5.596;2023-04-08T14:04:34;17.30;95.90
19206;DHT22;59358;52.134;5.596;2023-04-08T14:07:01;17.30;95.50
19206;DHT22;59358;52.134;5.596;2023-04-08T14:09:27;17.00;97.00
19206;DHT22;59358;52.134;5.596;2023-04-08T14:11:55;17.20;97.20
19206;DHT22;59358;52.134;5.596;2023-04-08T14:14:23;17.20;96.80
19206;DHT22;59358;52.134;5.596;2023-04-08T14:16:50;17.00;96.60
19206;DHT22;59358;52.134;5.596;2023-04-08T14:19:17;17.20;96.80
19206;DHT22;59358;52.134;5.596;2023-04-08T14:21:51;17.20;97.90
19206;DHT22;59358;52.134;5.596;2023-04-08T14:24:17;16.90;97.20
19206;DHT22;59358;52.134;5.596;2023-04-08T14:26:44;16.90;97.40
19206;DHT22;59358;52.134;5.596;2023-04-08T14:29:11;17.00;97.60
19206;DHT22;59358;52.134;5.596;2023-04-08T14:31:38;17.00;97.50
19206;DHT22;59358;52.134;5.596;2023-04-08T14:34:05;17.30;97.80
19206;DHT22;59358;52.134;5.596;2023-04-08T14:36:32;17.70;97.20
19206;DHT22;59358;52.134;5.596;2023-04-08T14:39:00;17.80;96.50
19206;DHT22;59358;52.134;5.596;2023-04-08T14:41:27;17.70;98.10
19206;DHT22;59358;52.134;5.596;2023-04-08T14:43:54;17.60;97.20
19206;DHT22;59358;52.134;5.596;2023-04-08T14:46:21;17.50;98.20
19206;DHT22;59358;52.134;5.596;2023-04-08T14:48:48;17.70;98.20
19206;DHT22;59358;52.134;5.596;2023-04-08T14:51:15;17.90;97.90
19206;DHT22;59358;52.134;5.596;2023-04-08T14:53:42;17.80;97.50
19206;DHT22;59358;52.134;5.596;2023-04-08T14:56:10;17.70;97.30
19206;DHT22;59358;52.134;5.596;2023-04-08T14:58:37;17.90;97.60
19206;DHT22;59358;52.134;5.596;2023-04-08T15:01:04;17.90;97.80
19206;DHT22;59358;52.134;5.596;2023-04-08T15:03:31;18.10;98.00
19206;DHT22;59358;52.134;5.596;2023-04-08T15:05:58;18.00;97.50
19206;DHT22;59358;52.134;5.596;2023-04-08T15:08:26;18.00;97.10
19206;DHT22;59358;52.134;5.596;2023-04-08T15:10:53;18.00;97.10
19206;DHT22;59358;52.134;5.596;2023-04-08T15:13:21;18.20;97.10
19206;DHT22;59358;52.134;5.596;2023-04-08T15:15:48;18.30;96.80
19206;DHT22;59358;52.134;5.596;2023-04-08T15:18:15;18.40;96.80
19206;DHT22;59358;52.134;5.596;2023-04-08T15:20:42;18.90;96.90
19206;DHT22;59358;52.134;5.596;2023-04-08T15:23:08;19.40;96.60
19206;DHT22;59358;52.134;5.596;2023-04-08T15:25:36;19.40;97.00
19206;DHT22;59358;52.134;5.596;2023-04-08T15:28:03;19.60;96.50
19206;DHT22;59358;52.134;5.596;2023-04-08T15:30:31;20.10;95.80
19206;DHT22;59358;52.134;5.596;2023-04-08T15:33:01;19.90;96.10
19206;DHT22;59358;52.134;5.596;2023-04-08T15:35:28;19.80;95.80
19206;DHT22;59358;52.134;5.596;2023-04-08T15:37:55;19.50;97.00
19206;DHT22;59358;52.134;5.596;2023-04-08T15:40:23;19.80;95.90
19206;DHT22;59358;52.134;5.596;2023-04-08T15:42:50;19.80;96.80
19206;DHT22;59358;52.134;5.596;2023-04-08T15:45:17;19.80;97.60
19206;DHT22;59358;52.134;5.596;2023-04-08T15:47:45;20.50;96.10
19206;DHT22;59358;52.134;5.596;2023-04-08T15:50:12;20.00;96.40
19206;DHT22;59358;52.134;5.596;2023-04-08T15:52:41;19.80;96.90